Tobol'Sk, Russia
Current Conditions -  °F | °C
As of 7:30 PM on Monday 22 Dec 2014 (Local Time) from USTR Reporting Station
Scattered Clouds Scattered Clouds  
Wind Chill: 19°   Ceiling: Unl
Heat Index: 27°   Visibility: 6mi
Dew Point: 25°   Wind: 7mph
Humidity: 93%   Direction: 160°SSE
Pressure: 29.85"   Gusts: NA
Location:  58.15°N, 68.25°E
Report Text: USTR 221430Z 16003MPS 9999 SCT033 M03/M04 Q1011 NOSIG RMKQFE749/0999 21190063 30390045
Loading
Personal Weather Stations






























Interactive Weather Map New forecast layout! Learn more

10-Day Weather Forecast

Advertisements
Track Severe Weather on mobile